Time;durP1;ratioP1;P1;durP2;ratioP2;P2;SDS_P1;SDS_P2;PMS_P1;PMS_P2;Temp;Humidity;BMP_temperature;BMP_pressure;BME280_temperature;BME280_humidity;BME280_pressure;Samples;Min_cycle;Max_cycle;Signal;HPM_P1;HPM_P2
2023/01/04 00:00:14;;;;;;;5.37;1.60;;;8.70;99.90;;;;;;5070560;28;20231;-42
2023/01/04 00:02:39;;;;;;;3.23;1.70;;;8.60;99.90;;;;;;5077653;28;20184;-40
2023/01/04 00:05:05;;;;;;;1.93;1.40;;;8.70;99.90;;;;;;5088665;28;20446;-43
2023/01/04 00:07:31;;;;;;;4.40;1.70;;;8.70;99.90;;;;;;5088500;28;20195;-40
2023/01/04 00:09:57;;;;;;;3.43;1.80;;;8.80;99.90;;;;;;5073202;28;20467;-41
2023/01/04 00:12:22;;;;;;;5.83;1.83;;;8.80;99.90;;;;;;5068798;28;20196;-41
2023/01/04 00:14:48;;;;;;;2.23;1.27;;;8.80;99.90;;;;;;5069500;28;20467;-40
2023/01/04 00:17:14;;;;;;;7.57;1.60;;;8.70;99.90;;;;;;5086360;28;20183;-41
2023/01/04 00:19:40;;;;;;;2.40;1.23;;;8.70;99.90;;;;;;5088301;28;20197;-39
2023/01/04 00:22:05;;;;;;;2.13;1.50;;;8.90;99.90;;;;;;5089591;28;20188;-38
2023/01/04 00:24:31;;;;;;;3.80;1.37;;;8.70;99.90;;;;;;5089673;28;20534;-42
2023/01/04 00:26:57;;;;;;;2.17;1.33;;;8.80;99.90;;;;;;5089514;28;20234;-39
2023/01/04 00:29:23;;;;;;;3.03;1.60;;;9.00;99.90;;;;;;5088969;28;20458;-41
2023/01/04 00:31:48;;;;;;;3.30;1.30;;;8.70;99.90;;;;;;5089534;28;20180;-39
2023/01/04 00:34:16;;;;;;;3.23;1.60;;;8.80;99.90;;;;;;5090338;28;20270;-37
2023/01/04 00:36:42;;;;;;;4.00;1.83;;;8.70;99.90;;;;;;5075132;28;20283;-42
2023/01/04 00:39:11;;;;;;;4.20;1.30;;;8.90;99.90;;;;;;5092998;28;20436;-42
2023/01/04 00:41:46;;;;;;;2.80;1.47;;;8.80;99.90;;;;;;5093144;28;20414;-42
2023/01/04 00:44:12;;;;;;;3.30;1.47;;;8.70;99.90;;;;;;5093242;28;20418;-42
2023/01/04 00:46:39;;;;;;;3.03;1.57;;;8.80;99.90;;;;;;5093046;28;20464;-40
2023/01/04 00:49:06;;;;;;;4.27;1.30;;;8.90;99.90;;;;;;5092265;28;20559;-41
2023/01/04 00:51:33;;;;;;;6.03;1.40;;;8.90;99.90;;;;;;5093218;28;20429;-42
2023/01/04 00:54:00;;;;;;;1.93;1.23;;;8.90;99.90;;;;;;5093174;28;20417;-40
2023/01/04 00:56:30;;;;;;;3.80;1.50;;;9.00;99.90;;;;;;5092992;28;20467;-41
2023/01/04 00:58:57;;;;;;;5.93;1.20;;;9.20;99.90;;;;;;5092930;28;20419;-42
2023/01/04 01:01:24;;;;;;;3.30;1.87;;;9.10;99.90;;;;;;5092771;28;20487;-40
2023/01/04 01:03:57;;;;;;;3.57;1.33;;;9.10;99.90;;;;;;5092903;28;20429;-41
2023/01/04 01:06:24;;;;;;;3.50;1.70;;;9.00;99.90;;;;;;5092908;28;20454;-41
2023/01/04 01:08:51;;;;;;;5.53;1.83;;;9.10;99.90;;;;;;5092558;28;20418;-40
2023/01/04 01:11:18;;;;;;;4.30;1.40;;;9.00;99.90;;;;;;5074207;28;20410;-40
2023/01/04 01:13:44;;;;;;;2.03;1.30;;;9.00;99.90;;;;;;5092699;28;20426;-41
2023/01/04 01:16:12;;;;;;;2.40;1.60;;;9.10;99.90;;;;;;5092564;28;20496;-40
2023/01/04 01:18:40;;;;;;;4.47;1.40;;;9.10;99.90;;;;;;5092472;28;20410;-40
2023/01/04 01:21:08;;;;;;;2.63;1.40;;;9.20;99.90;;;;;;5079683;28;20415;-42
2023/01/04 01:23:34;;;;;;;2.63;1.23;;;9.10;99.90;;;;;;5072377;28;20503;-42
2023/01/04 01:26:04;;;;;;;3.13;1.80;;;9.00;99.90;;;;;;5072672;28;20490;-43
2023/01/04 01:28:30;;;;;;;5.70;1.60;;;9.10;99.90;;;;;;5072083;28;20419;-41
2023/01/04 01:30:58;;;;;;;3.07;1.80;;;9.10;99.90;;;;;;5071616;28;20516;-41
2023/01/04 01:33:25;;;;;;;3.27;1.60;;;9.20;99.90;;;;;;5072182;28;20173;-38
2023/01/04 01:35:50;;;;;;;3.80;1.27;;;9.20;99.90;;;;;;5072452;28;20775;-42
2023/01/04 01:38:16;;;;;;;3.47;1.40;;;9.10;99.90;;;;;;5072064;28;20403;-42
2023/01/04 01:40:42;;;;;;;5.00;1.80;;;9.00;99.90;;;;;;5071689;28;20188;-37
2023/01/04 01:43:18;;;;;;;3.07;1.80;;;9.10;99.90;;;;;;5071852;28;20189;-42
2023/01/04 01:45:47;;;;;;;2.67;1.33;;;9.10;99.90;;;;;;5070658;28;20443;-39
2023/01/04 01:48:25;;;;;;;4.17;1.33;;;9.00;99.90;;;;;;5088735;28;20518;-42
2023/01/04 01:50:58;;;;;;;5.20;1.50;;;9.00;99.90;;;;;;5091548;28;20511;-42
2023/01/04 01:53:27;;;;;;;3.77;1.30;;;9.00;99.90;;;;;;5091994;28;20940;-41
2023/01/04 01:55:54;;;;;;;3.90;1.80;;;9.00;99.90;;;;;;5092206;28;20446;-42
2023/01/04 01:58:28;;;;;;;2.30;1.17;;;8.90;99.90;;;;;;5091989;28;20406;-40
2023/01/04 02:00:54;;;;;;;4.27;1.60;;;9.20;99.90;;;;;;5091398;28;20421;-40
2023/01/04 02:03:28;;;;;;;4.60;1.70;;;9.10;99.90;;;;;;5073651;28;20411;-41
2023/01/04 02:05:56;;;;;;;1.87;1.30;;;8.90;99.90;;;;;;5091599;28;20195;-41
2023/01/04 02:08:24;;;;;;;4.27;1.57;;;8.90;99.90;;;;;;5091783;28;20501;-43
2023/01/04 02:10:50;;;;;;;4.33;1.53;;;9.20;99.90;;;;;;5090987;28;20450;-38
2023/01/04 02:16:38;;;;;;;5.00;1.73;;;8.90;99.90;;;;;;5091557;28;20505;-41
2023/01/04 02:19:41;;;;;;;2.80;1.90;;;8.80;99.90;;;;;;5091130;28;20426;-40
2023/01/04 02:22:12;;;;;;;4.80;2.07;;;8.90;99.90;;;;;;5091316;28;20442;-43
2023/01/04 02:25:15;;;;;;;3.23;1.80;;;9.00;99.90;;;;;;5091300;28;20417;-40
2023/01/04 02:27:58;;;;;;;3.07;1.20;;;8.90;99.90;;;;;;5091434;28;20754;-39
2023/01/04 02:31:00;;;;;;;2.73;1.30;;;9.00;99.90;;;;;;5090766;28;20454;-40
2023/01/04 02:34:07;;;;;;;3.60;1.20;;;8.90;99.90;;;;;;5073069;28;20422;-42
2023/01/04 02:36:56;;;;;;;2.70;1.50;;;8.90;99.90;;;;;;5072892;28;20430;-43
2023/01/04 02:40:07;;;;;;;4.13;1.50;;;8.90;99.90;;;;;;5090432;28;20901;-40
2023/01/04 02:46:03;;;;;;;8.17;1.67;;;8.80;99.90;;;;;;5090993;28;20452;-40
2023/01/04 02:51:32;;;;;;;1.90;1.17;;;9.00;99.90;;;;;;5090402;28;20427;-40
2023/01/04 02:54:03;;;;;;;4.27;1.83;;;8.80;99.90;;;;;;5090669;28;20402;-41
2023/01/04 02:56:54;;;;;;;5.00;1.60;;;9.10;99.90;;;;;;5090794;28;20442;-39
2023/01/04 02:59:25;;;;;;;5.93;1.50;;;8.90;99.90;;;;;;5090211;28;20888;-41
2023/01/04 03:08:57;;;;;;;4.20;1.83;;;8.80;99.90;;;;;;5090286;28;20454;-37
2023/01/04 03:14:28;;;;;;;2.00;1.43;;;8.80;99.90;;;;;;5090589;28;20399;-40
2023/01/04 03:16:55;;;;;;;1.33;1.13;;;9.10;99.90;;;;;;5090256;28;20437;-39
2023/01/04 03:35:21;;;;;;;1.73;1.13;;;8.90;99.90;;;;;;5090184;28;20492;-41
2023/01/04 03:36:18;;;;;;;1.70;1.60;;;9.10;99.90;;;;;;5090152;28;20426;-38
2023/01/04 03:50:57;;;;;;;4.60;1.90;;;9.00;99.90;;;;;;5089219;28;20508;-40
2023/01/04 03:53:24;;;;;;;2.77;1.60;;;9.00;99.90;;;;;;5090005;28;20413;-41
2023/01/04 03:55:53;;;;;;;2.40;1.60;;;9.00;99.90;;;;;;5089937;28;20425;-41
2023/01/04 03:58:20;;;;;;;2.60;1.57;;;9.20;99.90;;;;;;5089975;28;20403;-38
2023/01/04 04:00:46;;;;;;;4.80;1.53;;;9.10;99.90;;;;;;5089126;28;20420;-41
2023/01/04 04:03:12;;;;;;;4.77;1.87;;;9.10;99.90;;;;;;5090115;28;20792;-42
2023/01/04 04:08:27;;;;;;;3.93;1.57;;;9.10;99.90;;;;;;5089158;28;20180;-42
2023/01/04 04:10:55;;;;;;;1.83;1.40;;;9.10;99.90;;;;;;5091314;28;21069;-41
2023/01/04 04:13:21;;;;;;;1.90;1.30;;;9.10;99.90;;;;;;5074359;28;20472;-42
2023/01/04 04:15:47;;;;;;;1.80;1.43;;;9.10;99.90;;;;;;5093336;28;20418;-40
2023/01/04 04:18:13;;;;;;;2.00;1.57;;;9.10;99.90;;;;;;5093942;28;20415;-40
2023/01/04 04:20:39;;;;;;;2.30;1.23;;;9.10;99.90;;;;;;5092408;28;20223;-40
2023/01/04 04:23:05;;;;;;;5.60;1.30;;;9.10;99.90;;;;;;5093692;28;20599;-42
2023/01/04 04:25:30;;;;;;;2.33;1.17;;;9.20;99.90;;;;;;5093725;28;20255;-41
2023/01/04 04:27:56;;;;;;;1.17;0.90;;;9.20;99.90;;;;;;5093533;28;20446;-38
2023/01/04 04:30:22;;;;;;;5.27;1.53;;;9.20;99.90;;;;;;5093271;28;20237;-42
2023/01/04 04:32:47;;;;;;;3.90;1.23;;;9.30;99.90;;;;;;5093552;28;20177;-40
2023/01/04 04:35:13;;;;;;;2.37;1.33;;;9.30;99.90;;;;;;5093707;28;20200;-41
2023/01/04 04:37:39;;;;;;;2.70;1.53;;;9.20;99.90;;;;;;5093507;28;20233;-40
2023/01/04 04:40:05;;;;;;;2.30;1.03;;;9.30;99.90;;;;;;5092862;28;20699;-42
2023/01/04 04:42:31;;;;;;;3.13;0.97;;;9.20;99.90;;;;;;5093530;28;20278;-42
2023/01/04 04:44:57;;;;;;;1.40;0.90;;;9.30;99.90;;;;;;5093594;28;20461;-41
2023/01/04 04:47:22;;;;;;;5.70;1.03;;;9.30;99.90;;;;;;5093249;28;20703;-41
2023/01/04 04:49:48;;;;;;;2.90;1.07;;;9.20;99.90;;;;;;5057803;28;20204;-42
2023/01/04 04:52:14;;;;;;;2.60;1.00;;;9.30;99.90;;;;;;5093302;28;20173;-41
2023/01/04 04:54:39;;;;;;;1.90;0.90;;;9.30;99.90;;;;;;5093106;28;20164;-40
2023/01/04 04:57:05;;;;;;;1.37;1.00;;;9.30;99.90;;;;;;5074885;28;20640;-42
2023/01/04 04:59:31;;;;;;;2.90;2.20;;;9.30;99.90;;;;;;5092747;28;20186;-42
2023/01/04 05:01:56;;;;;;;2.73;1.10;;;9.30;99.90;;;;;;5093226;28;20218;-41
2023/01/04 05:04:22;;;;;;;2.30;1.00;;;9.30;99.90;;;;;;5092866;28;20200;-41
2023/01/04 05:06:51;;;;;;;0.80;0.80;;;9.30;99.90;;;;;;5093112;28;20190;-39
2023/01/04 05:09:17;;;;;;;1.80;0.93;;;9.30;99.90;;;;;;5092068;28;20206;-41
2023/01/04 05:14:27;;;;;;;1.00;0.80;;;9.30;99.90;;;;;;5092870;28;20181;-41
2023/01/04 05:16:53;;;;;;;1.57;0.90;;;9.30;99.90;;;;;;5092785;28;20491;-41
2023/01/04 05:19:19;;;;;;;1.10;0.90;;;9.30;99.90;;;;;;5092188;28;20419;-39
2023/01/04 05:21:44;;;;;;;2.70;1.33;;;9.30;99.90;;;;;;5091453;28;20662;-41
2023/01/04 05:24:11;;;;;;;0.97;0.87;;;9.30;99.90;;;;;;5092870;28;20227;-42
2023/01/04 05:26:38;;;;;;;0.80;0.80;;;9.30;99.90;;;;;;5092743;28;20190;-42
2023/01/04 05:29:03;;;;;;;2.90;1.23;;;9.40;99.90;;;;;;5092049;28;20526;-38
2023/01/04 05:31:29;;;;;;;1.57;1.00;;;9.40;99.90;;;;;;5091120;28;21122;-41
2023/01/04 05:33:55;;;;;;;1.50;1.10;;;9.40;99.90;;;;;;5092544;28;20177;-41
2023/01/04 05:36:20;;;;;;;1.30;0.87;;;9.40;99.90;;;;;;5092377;28;20237;-42
2023/01/04 05:38:46;;;;;;;1.67;1.10;;;9.40;99.90;;;;;;5092367;28;20219;-40
2023/01/04 05:43:56;;;;;;;1.30;0.90;;;9.40;99.90;;;;;;5092287;28;20198;-42
2023/01/04 05:46:22;;;;;;;1.17;1.07;;;9.40;99.90;;;;;;5092098;28;20525;-38
2023/01/04 05:48:47;;;;;;;1.10;0.90;;;9.40;99.90;;;;;;5092124;28;20727;-41
2023/01/04 05:51:13;;;;;;;1.10;0.90;;;9.40;99.90;;;;;;5092823;28;20546;-40
2023/01/04 05:53:39;;;;;;;0.87;0.80;;;9.50;99.90;;;;;;5091115;28;20185;-41
2023/01/04 05:56:05;;;;;;;0.70;0.70;;;9.50;99.90;;;;;;5091860;28;20346;-42
2023/01/04 05:58:31;;;;;;;1.77;0.77;;;9.50;99.90;;;;;;5073873;28;20702;-42
2023/01/04 06:00:56;;;;;;;0.90;0.80;;;9.50;99.90;;;;;;5091458;28;20406;-41
2023/01/04 06:03:22;;;;;;;0.90;0.80;;;9.60;99.90;;;;;;5091957;28;20185;-40
2023/01/04 06:05:49;;;;;;;0.87;0.80;;;9.50;99.90;;;;;;5091749;28;20192;-38
2023/01/04 06:08:15;;;;;;;0.90;0.57;;;9.50;99.90;;;;;;5088406;28;20266;-42
2023/01/04 06:10:40;;;;;;;0.70;0.70;;;9.70;99.90;;;;;;5087874;28;20466;-38
2023/01/04 06:13:06;;;;;;;1.43;0.70;;;9.70;99.90;;;;;;5083327;28;20180;-40
2023/01/04 06:15:32;;;;;;;1.67;0.80;;;9.60;99.90;;;;;;5091678;28;20184;-41
2023/01/04 06:17:58;;;;;;;1.23;0.83;;;9.60;99.90;;;;;;5072955;28;20241;-41
2023/01/04 06:20:23;;;;;;;0.83;0.83;;;9.70;99.90;;;;;;5096736;28;20269;-41
2023/01/04 06:22:49;;;;;;;0.80;0.60;;;9.60;99.90;;;;;;5089003;28;20195;-42
2023/01/04 06:25:16;;;;;;;0.60;0.60;;;9.60;99.90;;;;;;5091690;28;20232;-40
2023/01/04 06:27:41;;;;;;;1.30;0.70;;;9.70;99.90;;;;;;5092808;28;20187;-42
2023/01/04 06:30:08;;;;;;;1.20;0.60;;;9.70;99.90;;;;;;5072541;28;20499;-41
2023/01/04 06:32:34;;;;;;;4.10;0.80;;;9.70;99.90;;;;;;5072203;28;20226;-42
2023/01/04 06:35:00;;;;;;;1.33;0.90;;;9.70;99.90;;;;;;5091390;28;20419;-41
2023/01/04 06:37:25;;;;;;;1.53;0.67;;;9.70;99.90;;;;;;5073080;28;20234;-42
2023/01/04 06:39:51;;;;;;;0.80;0.60;;;9.80;99.90;;;;;;5090559;28;20185;-41
2023/01/04 06:45:02;;;;;;;1.10;0.80;;;9.70;99.90;;;;;;5091508;28;20225;-42
2023/01/04 06:47:27;;;;;;;2.33;0.57;;;9.70;99.90;;;;;;5094105;28;20984;-40
2023/01/04 06:49:53;;;;;;;1.40;0.80;;;9.80;99.90;;;;;;5090407;28;20500;-40
2023/01/04 06:52:19;;;;;;;1.00;0.60;;;9.80;99.90;;;;;;5091125;28;20180;-42
2023/01/04 06:54:44;;;;;;;1.13;0.90;;;9.80;99.90;;;;;;5095370;28;20188;-40
2023/01/04 06:57:11;;;;;;;2.63;0.93;;;9.80;99.90;;;;;;5090876;28;20181;-40
2023/01/04 06:59:37;;;;;;;1.13;1.03;;;9.80;99.90;;;;;;5090262;28;20790;-41
2023/01/04 07:02:02;;;;;;;0.93;0.67;;;9.80;99.90;;;;;;5090533;28;20422;-41
2023/01/04 07:04:28;;;;;;;1.30;1.03;;;9.80;99.90;;;;;;5090608;28;20291;-42
2023/01/04 07:06:54;;;;;;;1.57;0.77;;;9.80;99.90;;;;;;5090929;28;20418;-43
2023/01/04 07:09:20;;;;;;;1.57;0.90;;;9.80;99.90;;;;;;5090252;28;20619;-41
2023/01/04 07:11:45;;;;;;;1.10;1.00;;;9.80;99.90;;;;;;5092915;28;20203;-42
2023/01/04 07:14:11;;;;;;;1.97;0.83;;;9.80;99.90;;;;;;5090259;28;20539;-41
2023/01/04 07:16:37;;;;;;;1.10;0.67;;;9.80;99.90;;;;;;5090233;28;20735;-41
2023/01/04 07:19:02;;;;;;;1.20;0.90;;;9.80;99.90;;;;;;5090145;28;20259;-43
2023/01/04 07:21:28;;;;;;;3.07;2.77;;;9.90;99.90;;;;;;5089321;28;20533;-42
2023/01/04 07:23:54;;;;;;;0.80;0.70;;;9.90;99.90;;;;;;5090423;28;20177;-42
2023/01/04 07:26:20;;;;;;;1.00;0.80;;;9.90;99.90;;;;;;5092339;28;20438;-40
2023/01/04 07:31:30;;;;;;;1.53;0.60;;;9.90;99.90;;;;;;5089455;28;20195;-40
2023/01/04 07:33:56;;;;;;;1.20;0.70;;;10.00;99.90;;;;;;5089215;28;20778;-41
2023/01/04 07:36:21;;;;;;;1.00;0.87;;;10.00;99.90;;;;;;5089984;28;20237;-40
2023/01/04 07:38:47;;;;;;;0.77;0.77;;;10.00;99.90;;;;;;5089896;28;20261;-39
2023/01/04 07:41:13;;;;;;;0.70;0.70;;;10.00;99.90;;;;;;5089236;28;20183;-42
2023/01/04 07:43:38;;;;;;;0.70;0.70;;;9.80;99.90;;;;;;5089885;28;20181;-40
2023/01/04 07:46:04;;;;;;;0.87;0.70;;;10.00;99.90;;;;;;5072131;28;20535;-41
2023/01/04 07:48:30;;;;;;;2.33;0.93;;;10.00;99.90;;;;;;5090264;28;20694;-42
2023/01/04 07:50:56;;;;;;;1.57;0.70;;;10.00;99.90;;;;;;5089504;28;20295;-42
2023/01/04 07:53:21;;;;;;;0.60;0.50;;;10.10;99.90;;;;;;5090081;28;20611;-41
2023/01/04 07:55:47;;;;;;;0.80;0.60;;;10.00;99.90;;;;;;5090196;28;20188;-39
2023/01/04 07:58:13;;;;;;;2.20;0.90;;;10.00;99.90;;;;;;5089769;28;20771;-40
2023/01/04 08:00:38;;;;;;;1.00;0.87;;;9.80;99.90;;;;;;5089571;28;20622;-41
2023/01/04 08:03:04;;;;;;;1.87;0.90;;;10.00;99.90;;;;;;5089950;28;20180;-41
2023/01/04 08:05:33;;;;;;;1.33;0.80;;;10.00;99.90;;;;;;5090059;28;20279;-42
2023/01/04 08:07:59;;;;;;;1.13;1.10;;;10.20;99.90;;;;;;5089843;28;20184;-42
2023/01/04 08:10:25;;;;;;;1.63;0.90;;;10.00;99.90;;;;;;5088659;28;20477;-40
2023/01/04 08:12:51;;;;;;;0.87;0.80;;;10.10;99.90;;;;;;5089192;28;20415;-39
2023/01/04 08:15:17;;;;;;;1.27;1.17;;;10.10;99.90;;;;;;5089399;28;20792;-43
2023/01/04 08:17:42;;;;;;;0.90;0.90;;;10.10;99.90;;;;;;5089727;28;20237;-43
2023/01/04 08:20:09;;;;;;;2.53;1.13;;;10.10;99.90;;;;;;5088208;28;20192;-41
2023/01/04 08:22:34;;;;;;;1.43;1.20;;;10.10;99.90;;;;;;5089863;28;20187;-42
2023/01/04 08:25:00;;;;;;;2.00;1.03;;;10.10;99.90;;;;;;5089565;28;20493;-42
2023/01/04 08:27:26;;;;;;;1.10;1.00;;;10.10;99.90;;;;;;5089574;28;20181;-41
2023/01/04 08:29:51;;;;;;;1.30;1.10;;;10.10;99.90;;;;;;5088931;28;20273;-42
2023/01/04 08:32:17;;;;;;;1.60;1.00;;;10.10;99.90;;;;;;5089478;28;20173;-41
2023/01/04 08:34:43;;;;;;;1.83;1.10;;;10.10;99.90;;;;;;5088684;28;20649;-42
2023/01/04 08:37:08;;;;;;;1.73;0.97;;;10.10;99.90;;;;;;5070390;28;20177;-38
2023/01/04 08:39:35;;;;;;;1.43;1.03;;;10.20;99.90;;;;;;5069972;28;20628;-42
2023/01/04 08:42:01;;;;;;;1.10;0.90;;;10.10;99.90;;;;;;5089536;28;20188;-42
2023/01/04 08:44:27;;;;;;;1.00;0.90;;;10.20;99.90;;;;;;5089617;28;20414;-42
2023/01/04 08:46:53;;;;;;;3.00;1.33;;;10.20;99.90;;;;;;5089611;28;20421;-41
2023/01/04 08:49:21;;;;;;;1.00;0.90;;;10.30;99.90;;;;;;5088768;28;20188;-41
2023/01/04 08:51:47;;;;;;;1.57;0.90;;;10.30;99.90;;;;;;5071369;28;20468;-41
2023/01/04 08:54:13;;;;;;;1.17;0.90;;;10.30;99.90;;;;;;5071239;28;20449;-42
2023/01/04 08:56:39;;;;;;;1.93;1.03;;;10.30;99.90;;;;;;5074165;28;21024;-42
2023/01/04 08:59:05;;;;;;;0.90;0.90;;;10.30;99.90;;;;;;5074414;28;20706;-41
2023/01/04 09:01:32;;;;;;;1.63;0.90;;;10.40;99.90;;;;;;5093143;28;20421;-40
2023/01/04 09:03:58;;;;;;;1.67;1.20;;;10.40;99.90;;;;;;5093050;28;20880;-39
2023/01/04 09:06:24;;;;;;;1.30;1.03;;;10.40;99.90;;;;;;5093015;28;20454;-38
2023/01/04 09:08:50;;;;;;;1.30;1.20;;;10.50;99.90;;;;;;5092958;28;20207;-38
2023/01/04 09:11:18;;;;;;;1.00;0.90;;;10.50;99.90;;;;;;5092261;28;20211;-42
2023/01/04 09:13:45;;;;;;;2.20;1.03;;;10.50;99.90;;;;;;5093029;28;20505;-43
2023/01/04 09:16:13;;;;;;;1.00;0.90;;;10.50;99.90;;;;;;5074657;28;20419;-39
2023/01/04 09:18:39;;;;;;;1.47;1.37;;;10.60;99.90;;;;;;5093011;28;20419;-42
2023/01/04 09:21:17;;;;;;;1.10;1.00;;;10.60;99.90;;;;;;5091330;28;20415;-43
2023/01/04 09:23:43;;;;;;;1.00;0.90;;;10.60;99.90;;;;;;5092656;28;20475;-41
2023/01/04 09:26:12;;;;;;;1.67;1.30;;;10.70;99.90;;;;;;5092690;28;20513;-41
2023/01/04 09:28:40;;;;;;;1.87;1.10;;;10.60;99.90;;;;;;5092807;28;20939;-41
2023/01/04 09:31:18;;;;;;;1.67;1.30;;;10.70;99.90;;;;;;5091880;28;20497;-42
2023/01/04 09:33:44;;;;;;;2.10;1.33;;;10.70;99.90;;;;;;5092744;28;20402;-41
2023/01/04 09:36:13;;;;;;;3.70;1.53;;;10.70;99.90;;;;;;5092403;28;20426;-41
2023/01/04 09:38:38;;;;;;;2.93;1.80;;;10.70;99.90;;;;;;5092482;28;20268;-41
2023/01/04 09:41:09;;;;;;;1.27;1.13;;;10.70;99.90;;;;;;5091884;28;21005;-42
2023/01/04 09:43:45;;;;;;;2.20;1.30;;;10.70;99.90;;;;;;5092490;28;20294;-42
2023/01/04 09:46:23;;;;;;;1.23;1.10;;;10.80;99.90;;;;;;5092332;28;20425;-39
2023/01/04 09:48:53;;;;;;;3.00;1.10;;;10.80;99.90;;;;;;5055487;28;20418;-40
2023/01/04 09:51:23;;;;;;;2.40;1.40;;;10.80;99.90;;;;;;5071576;28;20491;-41
2023/01/04 09:54:07;;;;;;;1.20;1.10;;;10.80;99.90;;;;;;5072072;28;20468;-42
2023/01/04 09:56:35;;;;;;;2.43;1.60;;;10.80;99.90;;;;;;5071940;28;20418;-41
2023/01/04 09:59:05;;;;;;;2.87;1.00;;;10.80;99.90;;;;;;5071108;28;20922;-42
2023/01/04 10:01:57;;;;;;;1.30;1.00;;;10.80;99.90;;;;;;5071806;28;20415;-42
2023/01/04 10:04:30;;;;;;;2.07;1.00;;;10.80;99.90;;;;;;5064670;28;20486;-42
2023/01/04 10:06:57;;;;;;;1.00;0.93;;;10.90;99.90;;;;;;5053728;28;20416;-41
2023/01/04 10:09:22;;;;;;;3.03;1.33;;;10.90;99.90;;;;;;5070660;28;20426;-42
2023/01/04 10:11:51;;;;;;;1.70;1.20;;;10.90;99.90;;;;;;5071769;28;20416;-41
2023/01/04 10:14:38;;;;;;;1.17;1.00;;;10.90;99.90;;;;;;5071482;28;20173;-42
2023/01/04 10:17:26;;;;;;;2.13;1.40;;;11.00;99.90;;;;;;5086853;28;20422;-40
2023/01/04 10:20:00;;;;;;;3.37;1.40;;;11.00;99.90;;;;;;5090056;28;21253;-42
2023/01/04 10:22:45;;;;;;;1.30;1.00;;;11.00;99.90;;;;;;5091646;28;20504;-42
2023/01/04 10:25:13;;;;;;;3.17;1.00;;;11.00;99.90;;;;;;5091665;28;20416;-41
2023/01/04 10:27:52;;;;;;;1.30;0.83;;;11.00;99.90;;;;;;5091572;28;20493;-40
2023/01/04 10:30:43;;;;;;;0.83;0.80;;;11.00;99.90;;;;;;5090632;28;20450;-40
2023/01/04 10:33:35;;;;;;;1.53;1.00;;;11.00;99.90;;;;;;5091349;28;20411;-42
2023/01/04 10:36:01;;;;;;;2.53;1.20;;;11.00;99.90;;;;;;5090200;28;20784;-41
2023/01/04 10:38:38;;;;;;;3.77;1.40;;;11.00;99.90;;;;;;5091128;28;20407;-40
2023/01/04 10:41:17;;;;;;;1.20;1.00;;;11.00;99.90;;;;;;5090840;28;20566;-41
2023/01/04 10:44:04;;;;;;;1.30;1.20;;;11.00;99.90;;;;;;5091121;28;20919;-42
2023/01/04 10:46:42;;;;;;;1.30;0.83;;;11.00;99.90;;;;;;5091146;28;20414;-41
2023/01/04 10:49:32;;;;;;;1.73;1.10;;;11.00;99.90;;;;;;5090381;28;20415;-39
2023/01/04 10:52:09;;;;;;;1.10;1.00;;;11.00;99.90;;;;;;5091076;28;20886;-42
2023/01/04 10:54:51;;;;;;;2.10;1.17;;;11.00;99.90;;;;;;5090998;28;20409;-43
2023/01/04 10:57:29;;;;;;;1.20;0.80;;;11.00;99.90;;;;;;5090901;28;20414;-43
2023/01/04 11:00:07;;;;;;;1.13;0.90;;;11.00;99.90;;;;;;5090333;28;20463;-42
2023/01/04 11:02:41;;;;;;;1.33;0.97;;;11.00;99.90;;;;;;5090891;28;20417;-41
2023/01/04 11:05:20;;;;;;;1.47;1.20;;;11.00;99.90;;;;;;5090685;28;20520;-41
2023/01/04 11:08:06;;;;;;;1.17;0.80;;;11.00;99.90;;;;;;5090487;28;20418;-39
2023/01/04 11:10:45;;;;;;;1.33;0.87;;;11.00;99.90;;;;;;5090028;28;20469;-43
2023/01/04 11:13:11;;;;;;;1.37;1.10;;;11.10;99.90;;;;;;5090800;28;20510;-41
2023/01/04 11:15:37;;;;;;;2.23;0.80;;;11.10;99.90;;;;;;5072419;28;20866;-41
2023/01/04 11:18:06;;;;;;;7.23;1.40;;;11.00;99.90;;;;;;5090193;28;20177;-40
2023/01/04 11:20:32;;;;;;;1.50;1.40;;;11.10;99.90;;;;;;5089131;28;20246;-41
2023/01/04 11:23:04;;;;;;;3.77;1.30;;;11.10;99.90;;;;;;5090645;28;20791;-40
2023/01/04 11:25:36;;;;;;;3.30;1.70;;;11.10;99.90;;;;;;5090516;28;20942;-42
2023/01/04 11:28:14;;;;;;;4.73;1.60;;;11.10;99.90;;;;;;5090561;28;20485;-40
2023/01/04 11:31:00;;;;;;;2.93;2.73;;;11.10;99.90;;;;;;5089656;28;20481;-39
2023/01/04 11:33:26;;;;;;;4.03;1.70;;;11.10;99.90;;;;;;5079386;28;20927;-43
2023/01/04 11:35:55;;;;;;;2.33;1.77;;;11.10;99.90;;;;;;5090563;28;20422;-42
2023/01/04 11:38:23;;;;;;;1.40;1.30;;;11.10;99.90;;;;;;5090362;28;20452;-42
2023/01/04 11:40:58;;;;;;;2.07;1.70;;;11.10;99.90;;;;;;5089819;28;20432;-42
2023/01/04 11:43:26;;;;;;;2.33;2.13;;;11.20;99.90;;;;;;5090256;28;20406;-42
2023/01/04 11:45:53;;;;;;;2.77;1.87;;;11.20;99.90;;;;;;5090292;28;20409;-42
2023/01/04 11:48:22;;;;;;;3.43;2.17;;;11.20;99.90;;;;;;5090063;28;20933;-43
2023/01/04 11:51:40;;;;;;;2.20;1.80;;;11.20;99.90;;;;;;5089619;28;20814;-42
2023/01/04 11:54:28;;;;;;;1.80;1.70;;;11.20;99.90;;;;;;5072022;28;20552;-42
2023/01/04 12:03:38;;;;;;;1.80;1.70;;;11.20;99.90;;;;;;5089663;28;20878;-41
2023/01/04 12:12:48;;;;;;;1.57;1.47;;;11.20;99.90;;;;;;5089658;28;20422;-43
2023/01/04 12:15:21;;;;;;;1.30;1.20;;;11.30;99.90;;;;;;5089919;28;20464;-41
2023/01/04 12:18:01;;;;;;;1.70;1.40;;;11.20;99.90;;;;;;5088634;28;20673;-42
2023/01/04 12:20:28;;;;;;;1.23;1.13;;;11.30;99.90;;;;;;5088429;28;20889;-42
2023/01/04 12:33:31;;;;;;;1.77;1.00;;;11.30;99.90;;;;;;5093522;28;20406;-41
2023/01/04 12:36:06;;;;;;;0.70;0.70;;;11.30;99.90;;;;;;5092308;28;20944;-41
2023/01/04 12:38:51;;;;;;;0.90;0.80;;;11.30;99.90;;;;;;5093662;28;20422;-41
2023/01/04 12:41:59;;;;;;;1.20;0.90;;;11.30;99.90;;;;;;5093098;28;20859;-43
2023/01/04 12:44:42;;;;;;;3.87;1.70;;;11.20;99.90;;;;;;5093307;28;20426;-42
2023/01/04 12:50:06;;;;;;;0.60;0.50;;;11.30;99.90;;;;;;5092621;28;20457;-42
2023/01/04 12:52:31;;;;;;;0.93;0.80;;;11.30;99.90;;;;;;5093501;28;20415;-42
2023/01/04 12:55:00;;;;;;;0.90;0.80;;;11.30;99.90;;;;;;5093347;28;20442;-42
2023/01/04 12:57:36;;;;;;;1.00;0.90;;;11.30;99.90;;;;;;5074576;28;20225;-39
2023/01/04 13:00:05;;;;;;;0.83;0.60;;;11.30;99.90;;;;;;5091236;28;20441;-41
2023/01/04 13:02:31;;;;;;;0.70;0.70;;;11.30;99.90;;;;;;5092163;28;20897;-42
2023/01/04 13:05:00;;;;;;;0.80;0.70;;;11.30;99.90;;;;;;5092566;28;20841;-42
2023/01/04 13:07:48;;;;;;;0.93;0.80;;;11.30;99.90;;;;;;5093408;28;20962;-43
2023/01/04 13:10:35;;;;;;;0.70;0.70;;;11.30;99.90;;;;;;5092320;28;20596;-42
2023/01/04 13:13:28;;;;;;;0.97;0.83;;;11.30;99.90;;;;;;5093062;28;20411;-42
2023/01/04 13:16:21;;;;;;;0.90;0.80;;;11.30;99.90;;;;;;5092869;28;20944;-41
2023/01/04 13:18:49;;;;;;;1.03;1.00;;;11.40;99.90;;;;;;5092846;28;20767;-41
2023/01/04 13:21:39;;;;;;;1.43;0.60;;;11.40;99.90;;;;;;5089523;28;20426;-42
2023/01/04 13:24:31;;;;;;;4.60;0.93;;;11.40;99.90;;;;;;5092839;28;20410;-41
2023/01/04 13:27:05;;;;;;;0.97;0.77;;;11.40;99.90;;;;;;5091267;28;20785;-42
2023/01/04 13:29:33;;;;;;;0.67;0.57;;;11.40;99.90;;;;;;5090547;28;20516;-42
2023/01/04 13:32:04;;;;;;;1.53;0.80;;;11.40;99.90;;;;;;5086508;28;20443;-39
2023/01/04 13:34:53;;;;;;;2.97;0.80;;;11.40;99.90;;;;;;5092438;28;20441;-42
2023/01/04 13:37:30;;;;;;;0.90;0.80;;;11.40;99.90;;;;;;5072564;28;20458;-42
2023/01/04 13:40:19;;;;;;;0.67;0.63;;;11.50;99.90;;;;;;5099561;28;20447;-42
2023/01/04 13:42:48;;;;;;;0.73;0.60;;;11.50;99.90;;;;;;5089609;28;20811;-41
2023/01/04 13:45:35;;;;;;;1.03;0.93;;;11.60;99.90;;;;;;5068245;28;20456;-42
2023/01/04 13:48:03;;;;;;;0.90;0.70;;;11.60;99.90;;;;;;5084839;28;20448;-42
2023/01/04 13:50:46;;;;;;;0.80;0.70;;;11.50;99.90;;;;;;5090880;28;20473;-43
2023/01/04 13:53:26;;;;;;;0.70;0.60;;;11.60;99.90;;;;;;5087431;28;20454;-42
2023/01/04 13:55:59;;;;;;;0.70;0.70;;;11.60;99.90;;;;;;5077084;28;20446;-40
2023/01/04 13:58:30;;;;;;;1.77;0.60;;;11.60;99.90;;;;;;5090998;28;20464;-42
2023/01/04 14:01:01;;;;;;;0.77;0.60;;;11.60;99.90;;;;;;5087087;28;20790;-42
2023/01/04 14:03:39;;;;;;;0.73;0.60;;;11.60;99.90;;;;;;5090533;28;21044;-41
2023/01/04 14:06:18;;;;;;;0.80;0.80;;;11.60;99.90;;;;;;5102276;28;20469;-41
2023/01/04 14:09:12;;;;;;;0.83;0.80;;;11.60;99.90;;;;;;5091083;28;20505;-41
2023/01/04 14:12:03;;;;;;;0.70;0.70;;;11.60;99.90;;;;;;5089045;28;20481;-42
2023/01/04 14:14:54;;;;;;;0.60;0.60;;;11.60;99.90;;;;;;5090765;28;20533;-42
2023/01/04 14:17:35;;;;;;;0.93;0.80;;;11.70;99.90;;;;;;5086046;28;20988;-42
2023/01/04 14:20:11;;;;;;;0.93;0.80;;;11.70;99.90;;;;;;5082570;28;20468;-42
2023/01/04 14:22:48;;;;;;;1.63;0.67;;;11.70;99.90;;;;;;5091102;28;20489;-43
2023/01/04 14:25:32;;;;;;;0.83;0.83;;;11.70;99.90;;;;;;5090532;28;20461;-41
2023/01/04 14:28:23;;;;;;;0.80;0.70;;;11.70;99.90;;;;;;5087171;28;20449;-40
2023/01/04 14:31:17;;;;;;;1.47;0.80;;;11.60;99.90;;;;;;5097016;28;20485;-42
2023/01/04 14:33:48;;;;;;;0.80;0.80;;;11.70;99.90;;;;;;5090214;28;20451;-41
2023/01/04 14:36:29;;;;;;;1.10;0.70;;;11.60;99.90;;;;;;5098047;28;20454;-41
2023/01/04 14:39:06;;;;;;;1.20;1.10;;;11.60;99.90;;;;;;5061079;28;20844;-42